createdAt,value
2022-12-13T00:00:50.450Z,-5.68
2022-12-13T00:02:51.872Z,-5.68
2022-12-13T00:04:53.354Z,-5.69
2022-12-13T00:06:54.865Z,-5.67
2022-12-13T00:08:56.974Z,-5.68
2022-12-13T00:11:03.268Z,-5.69
2022-12-13T00:13:04.743Z,-5.69
2022-12-13T00:15:07.058Z,-5.70
2022-12-13T00:17:08.489Z,-5.68
2022-12-13T00:19:09.909Z,-5.67
2022-12-13T00:21:16.696Z,-5.68
2022-12-13T00:23:18.648Z,-5.70
2022-12-13T00:25:21.393Z,-5.72
2022-12-13T00:27:23.302Z,-5.73
2022-12-13T00:29:24.779Z,-5.73
2022-12-13T00:31:56.546Z,-5.75
2022-12-13T00:33:49.127Z,-5.75
2022-12-13T00:35:50.581Z,-5.74
2022-12-13T00:37:52.141Z,-5.75
2022-12-13T00:39:53.569Z,-5.75
2022-12-13T00:41:55.113Z,-5.77
2022-12-13T00:43:56.919Z,-5.78
2022-12-13T00:45:58.384Z,-5.81
2022-12-13T00:48:00.193Z,-5.84
2022-12-13T00:50:02.371Z,-5.85
2022-12-13T00:52:04.034Z,-5.86
2022-12-13T00:54:06.262Z,-5.86
2022-12-13T00:56:12.837Z,-5.88
2022-12-13T00:58:14.265Z,-5.89
2022-12-13T01:00:15.805Z,-5.90
2022-12-13T01:02:17.288Z,-5.91
2022-12-13T01:04:18.801Z,-5.94
2022-12-13T01:06:23.262Z,-5.95
2022-12-13T01:08:24.766Z,-5.96
2022-12-13T01:10:26.234Z,-5.96
2022-12-13T01:12:27.675Z,-5.99
2022-12-13T01:14:30.179Z,-6.01
2022-12-13T01:16:31.755Z,-6.04
2022-12-13T01:18:33.591Z,-6.08
2022-12-13T01:20:35.057Z,-6.09
2022-12-13T01:22:36.501Z,-6.08
2022-12-13T01:24:38.571Z,-6.07
2022-12-13T01:26:40.066Z,-6.08
2022-12-13T01:28:41.739Z,-6.10
2022-12-13T01:30:43.216Z,-6.12
2022-12-13T01:32:44.785Z,-6.12
2022-12-13T01:34:46.250Z,-6.13
2022-12-13T01:36:48.325Z,-6.14
2022-12-13T01:38:49.846Z,-6.16
2022-12-13T01:40:58.989Z,-6.16
2022-12-13T01:43:00.561Z,-6.17
2022-12-13T01:45:07.189Z,-6.16
2022-12-13T01:47:09.552Z,-6.16
2022-12-13T01:49:19.357Z,-6.15
2022-12-13T01:51:34.229Z,-6.16
2022-12-13T01:53:39.246Z,-6.16
2022-12-13T01:55:45.402Z,-6.17
2022-12-13T01:57:49.505Z,-6.19
2022-12-13T01:59:52.600Z,-6.21
2022-12-13T02:01:54.046Z,-6.22
2022-12-13T02:04:02.658Z,-6.19
2022-12-13T02:06:12.926Z,-6.16
2022-12-13T02:08:16.051Z,-6.15
2022-12-13T02:10:17.765Z,-6.14
2022-12-13T02:12:19.222Z,-6.14
2022-12-13T02:14:20.687Z,-6.12
2022-12-13T02:16:22.976Z,-6.11
2022-12-13T02:18:36.709Z,-6.12
2022-12-13T02:20:47.576Z,-6.15
2022-12-13T02:23:23.872Z,-6.19
2022-12-13T02:26:09.730Z,-6.22
2022-12-13T02:28:40.604Z,-6.20
2022-12-13T02:30:49.376Z,-6.18
2022-12-13T02:33:03.411Z,-6.14
2022-12-13T02:35:11.593Z,-6.11
2022-12-13T02:37:22.900Z,-6.09
2022-12-13T02:39:49.932Z,-6.06
2022-12-13T02:41:54.473Z,-6.05
2022-12-13T02:44:01.247Z,-6.03
2022-12-13T02:46:05.344Z,-6.00
2022-12-13T02:48:10.734Z,-6.00
2022-12-13T02:50:14.781Z,-5.98
2022-12-13T02:52:22.462Z,-5.97
2022-12-13T02:54:24.824Z,-5.97
2022-12-13T02:56:26.299Z,-5.97
2022-12-13T02:58:34.979Z,-5.95
2022-12-13T03:00:47.332Z,-5.96
2022-12-13T03:02:51.743Z,-5.96
2022-12-13T03:05:32.951Z,-5.96
2022-12-13T03:07:43.909Z,-5.98
2022-12-13T03:09:54.047Z,-6.00
2022-12-13T03:12:37.128Z,-6.03
2022-12-13T03:14:55.310Z,-6.04
2022-12-13T03:17:01.186Z,-6.05
2022-12-13T03:19:06.026Z,-6.06
2022-12-13T03:21:09.550Z,-6.07
2022-12-13T03:23:11.307Z,-6.08
2022-12-13T03:25:13.225Z,-6.10
2022-12-13T03:27:32.997Z,-6.12
2022-12-13T03:29:34.464Z,-6.13
2022-12-13T03:31:35.928Z,-6.15
2022-12-13T03:33:38.819Z,-6.17
2022-12-13T03:35:45.798Z,-6.18
2022-12-13T03:37:48.000Z,-6.16
2022-12-13T03:39:49.700Z,-6.11
2022-12-13T03:41:51.543Z,-6.10
2022-12-13T03:43:53.023Z,-6.07
2022-12-13T03:45:54.599Z,-6.05
2022-12-13T03:47:56.061Z,-6.04
2022-12-13T03:49:57.523Z,-6.03
2022-12-13T03:52:18.947Z,-6.04
2022-12-13T03:54:20.423Z,-6.03
2022-12-13T03:56:21.878Z,-6.03
2022-12-13T03:58:23.765Z,-6.00
2022-12-13T04:00:25.239Z,-5.99
2022-12-13T04:02:30.680Z,-5.98
2022-12-13T04:04:33.087Z,-6.00
2022-12-13T04:06:34.789Z,-6.00
2022-12-13T04:08:37.334Z,-6.00
2022-12-13T04:10:38.869Z,-5.98
2022-12-13T04:13:00.470Z,-5.95
2022-12-13T04:15:02.046Z,-5.93
2022-12-13T04:17:03.618Z,-5.88
2022-12-13T04:19:05.199Z,-5.85
2022-12-13T04:21:07.189Z,-5.85
2022-12-13T04:23:10.402Z,-5.82
2022-12-13T04:25:12.532Z,-5.83
2022-12-13T04:27:14.174Z,-5.80
2022-12-13T04:29:15.764Z,-5.77
2022-12-13T04:31:17.361Z,-5.77
2022-12-13T04:33:20.974Z,-5.75
2022-12-13T04:35:22.676Z,-5.71
2022-12-13T04:37:24.166Z,-5.66
2022-12-13T04:39:25.633Z,-5.64
2022-12-13T04:41:37.635Z,-5.62
2022-12-13T04:43:39.066Z,-5.62
2022-12-13T04:45:41.002Z,-5.61
2022-12-13T04:47:42.608Z,-5.59
2022-12-13T04:49:44.145Z,-5.58
2022-12-13T04:51:47.535Z,-5.57
2022-12-13T04:53:49.981Z,-5.56
2022-12-13T04:55:52.666Z,-5.52
2022-12-13T04:57:54.119Z,-5.49
2022-12-13T04:59:55.553Z,-5.46
2022-12-13T05:01:57.056Z,-5.41
2022-12-13T05:03:58.587Z,-5.39
2022-12-13T05:06:00.034Z,-5.34
2022-12-13T05:08:01.691Z,-5.32
2022-12-13T05:10:03.909Z,-5.28
2022-12-13T05:12:05.645Z,-5.25
2022-12-13T05:14:23.815Z,-5.22
2022-12-13T05:16:25.517Z,-5.19
2022-12-13T05:18:27.823Z,-5.17
2022-12-13T05:20:29.292Z,-5.16
2022-12-13T05:22:30.789Z,-5.12
2022-12-13T05:24:32.289Z,-5.12
2022-12-13T05:26:33.735Z,-5.12
2022-12-13T05:28:35.557Z,-5.12
2022-12-13T05:30:41.021Z,-5.07
2022-12-13T05:32:43.487Z,-5.04
2022-12-13T05:34:46.198Z,-5.02
2022-12-13T05:36:47.646Z,-4.98
2022-12-13T05:38:49.133Z,-4.96
2022-12-13T05:40:50.851Z,-4.95
2022-12-13T05:43:01.256Z,-4.93
2022-12-13T05:45:03.577Z,-4.89
2022-12-13T05:47:05.063Z,-4.87
2022-12-13T05:49:06.570Z,-4.84
2022-12-13T05:51:10.125Z,-4.81
2022-12-13T05:53:13.225Z,-4.79
2022-12-13T05:55:31.901Z,-4.76
2022-12-13T05:57:34.091Z,-4.76
2022-12-13T05:59:35.691Z,-4.77
2022-12-13T06:01:37.395Z,-4.79
2022-12-13T06:03:45.649Z,-4.80
2022-12-13T06:05:47.289Z,-4.76
2022-12-13T06:07:52.182Z,-4.71
2022-12-13T06:10:09.609Z,-4.69
2022-12-13T06:12:32.058Z,-4.67
2022-12-13T06:14:33.655Z,-4.66
2022-12-13T06:16:35.515Z,-4.66
2022-12-13T06:18:37.622Z,-4.62
2022-12-13T06:20:39.133Z,-4.59
2022-12-13T06:22:40.572Z,-4.55
2022-12-13T06:24:42.319Z,-4.52
2022-12-13T06:26:45.356Z,-4.47
2022-12-13T06:28:47.205Z,-4.44
2022-12-13T06:30:52.244Z,-4.41
2022-12-13T06:32:53.756Z,-4.37
2022-12-13T06:34:55.210Z,-4.34
2022-12-13T06:36:58.495Z,-4.28
2022-12-13T06:39:04.088Z,-4.24
2022-12-13T06:41:11.152Z,-4.19
2022-12-13T06:43:12.625Z,-4.17
2022-12-13T06:45:14.187Z,-4.12
2022-12-13T06:47:31.895Z,-4.08
2022-12-13T06:49:33.825Z,-4.05
2022-12-13T06:51:35.370Z,-4.03
2022-12-13T06:53:38.725Z,-4.02
2022-12-13T06:55:40.254Z,-4.00
2022-12-13T06:57:41.982Z,-4.00
2022-12-13T06:59:43.886Z,-3.97
2022-12-13T07:01:50.678Z,-3.93
2022-12-13T07:03:55.994Z,-3.91
2022-12-13T07:06:03.413Z,-3.91
2022-12-13T07:08:05.134Z,-3.92
2022-12-13T07:10:06.906Z,-3.95
2022-12-13T07:12:14.240Z,-3.93
2022-12-13T07:14:15.681Z,-3.90
2022-12-13T07:16:17.584Z,-3.90
2022-12-13T07:18:19.266Z,-3.91
2022-12-13T07:20:22.642Z,-3.92
2022-12-13T07:22:24.114Z,-3.97
2022-12-13T07:24:25.547Z,-4.03
2022-12-13T07:26:27.086Z,-4.07
2022-12-13T07:28:28.963Z,-4.06
2022-12-13T07:30:41.073Z,-4.04
2022-12-13T07:32:43.222Z,-4.02
2022-12-13T07:34:44.655Z,-4.03
2022-12-13T07:36:46.232Z,-4.05
2022-12-13T07:38:55.362Z,-4.05
2022-12-13T07:40:57.958Z,-4.01
2022-12-13T07:42:59.476Z,-3.98
2022-12-13T07:45:01.032Z,-3.95
2022-12-13T07:47:02.589Z,-3.93
2022-12-13T07:49:05.228Z,-3.91
2022-12-13T07:51:13.992Z,-3.92
2022-12-13T07:53:15.371Z,-3.95
2022-12-13T07:55:17.777Z,-3.98
2022-12-13T07:57:19.221Z,-3.97
2022-12-13T07:59:28.783Z,-3.99
2022-12-13T08:01:36.722Z,-3.98
2022-12-13T08:03:39.117Z,-3.94
2022-12-13T08:05:40.622Z,-3.95
2022-12-13T08:07:42.102Z,-3.96
2022-12-13T08:09:48.012Z,-3.93
2022-12-13T08:11:53.012Z,-3.89
2022-12-13T08:13:54.943Z,-3.90
2022-12-13T08:16:01.066Z,-3.88
2022-12-13T08:18:03.952Z,-3.87
2022-12-13T08:20:05.799Z,-3.83
2022-12-13T08:22:14.213Z,-3.82
2022-12-13T08:24:16.038Z,-3.84
2022-12-13T08:26:17.532Z,-3.87
2022-12-13T08:28:19.105Z,-3.90
2022-12-13T08:30:23.089Z,-3.87
2022-12-13T08:32:26.032Z,-3.84
2022-12-13T08:34:27.506Z,-3.82
2022-12-13T08:36:28.952Z,-3.81
2022-12-13T08:38:30.408Z,-3.84
2022-12-13T08:40:32.415Z,-3.84
2022-12-13T08:42:33.905Z,-3.82
2022-12-13T08:44:35.359Z,-3.81
2022-12-13T08:46:36.858Z,-3.83
2022-12-13T08:48:44.512Z,-3.94
2022-12-13T08:50:46.351Z,-3.96
2022-12-13T08:52:47.866Z,-3.90
2022-12-13T08:54:49.500Z,-3.90
2022-12-13T08:56:51.044Z,-3.92
2022-12-13T08:58:52.538Z,-3.90
2022-12-13T09:00:54.097Z,-3.90
2022-12-13T09:02:57.870Z,-3.88
2022-12-13T09:04:59.319Z,-3.91
2022-12-13T09:07:01.394Z,-3.94
2022-12-13T09:09:03.867Z,-3.89
2022-12-13T09:11:10.491Z,-3.88
2022-12-13T09:13:13.129Z,-3.81
2022-12-13T09:15:34.987Z,-3.79
2022-12-13T09:17:37.606Z,-3.77
2022-12-13T09:19:39.264Z,-3.78
2022-12-13T09:21:43.196Z,-3.77
2022-12-13T09:23:45.645Z,-3.76
2022-12-13T09:26:05.240Z,-3.70
2022-12-13T09:28:08.956Z,-3.66
2022-12-13T09:30:14.500Z,-3.67
2022-12-13T09:32:16.096Z,-3.64
2022-12-13T09:34:17.562Z,-3.63
2022-12-13T09:36:20.910Z,-3.59
2022-12-13T09:38:22.479Z,-3.57
2022-12-13T09:40:27.297Z,-3.57
2022-12-13T09:42:31.255Z,-3.57
2022-12-13T09:44:45.201Z,-3.56
2022-12-13T09:46:52.692Z,-3.55
2022-12-13T09:49:01.757Z,-3.52
2022-12-13T09:51:18.177Z,-3.48
2022-12-13T09:53:25.371Z,-3.44
2022-12-13T09:55:41.934Z,-3.42
2022-12-13T09:57:44.210Z,-3.44
2022-12-13T09:59:47.451Z,-3.41
2022-12-13T10:01:49.077Z,-3.39
2022-12-13T10:03:53.294Z,-3.37
2022-12-13T10:06:13.813Z,-3.30
2022-12-13T10:08:45.115Z,-3.17
2022-12-13T10:10:46.587Z,-3.04
2022-12-13T10:12:56.099Z,-2.90
2022-12-13T10:15:02.833Z,-2.77
2022-12-13T10:17:08.704Z,-2.67
2022-12-13T10:19:29.283Z,-2.57
2022-12-13T10:21:38.774Z,-2.48
2022-12-13T10:24:15.285Z,-2.43
2022-12-13T10:26:02.837Z,-2.34
2022-12-13T10:28:06.304Z,-2.26
2022-12-13T10:30:12.106Z,-2.31
2022-12-13T10:32:14.081Z,-2.45
2022-12-13T10:34:28.330Z,-2.57
2022-12-13T10:36:38.460Z,-2.63
2022-12-13T10:38:43.803Z,-2.61
2022-12-13T10:40:45.858Z,-2.56
2022-12-13T10:43:06.382Z,-2.58
2022-12-13T10:45:16.178Z,-2.58
2022-12-13T10:47:26.274Z,-2.49
2022-12-13T10:49:37.593Z,-2.33
2022-12-13T10:51:40.175Z,-2.23
2022-12-13T10:53:49.936Z,-2.18
2022-12-13T10:55:56.118Z,-2.15
2022-12-13T10:58:07.547Z,-2.05
2022-12-13T11:00:32.260Z,-1.68
2022-12-13T11:02:33.707Z,-1.35
2022-12-13T11:04:35.987Z,-1.18
2022-12-13T11:06:45.806Z,-1.12
2022-12-13T11:08:47.363Z,-0.92
2022-12-13T11:11:00.710Z,-0.44
2022-12-13T11:13:05.702Z,-0.14
2022-12-13T11:15:14.523Z,0.11
2022-12-13T11:17:17.296Z,0.39
2022-12-13T11:19:21.652Z,0.61
2022-12-13T11:21:31.122Z,0.84
2022-12-13T11:23:37.843Z,1.11
2022-12-13T11:25:40.839Z,1.32
2022-12-13T11:27:59.663Z,1.29
2022-12-13T11:30:03.749Z,1.32
2022-12-13T11:32:10.833Z,1.44
2022-12-13T11:34:12.304Z,1.20
2022-12-13T11:36:25.599Z,0.97
2022-12-13T11:39:26.903Z,0.70
2022-12-13T11:41:33.890Z,0.38
2022-12-13T11:43:42.539Z,0.25
2022-12-13T11:45:51.031Z,0.21
2022-12-13T11:47:58.689Z,0.16
2022-12-13T11:50:05.422Z,0.08
2022-12-13T11:52:14.223Z,0.09
2022-12-13T11:54:23.520Z,0.10
2022-12-13T11:56:31.637Z,0.17
2022-12-13T11:59:10.214Z,0.24
2022-12-13T12:01:18.192Z,0.21
2022-12-13T12:03:41.960Z,0.17
2022-12-13T12:06:09.332Z,0.24
2022-12-13T12:08:43.117Z,0.18
2022-12-13T12:10:50.185Z,0.06
2022-12-13T12:13:04.602Z,-0.04
2022-12-13T12:15:15.958Z,-0.08
2022-12-13T12:17:23.199Z,-0.08
2022-12-13T12:19:37.034Z,-0.05
2022-12-13T12:22:13.249Z,-0.04
2022-12-13T12:24:37.946Z,-0.02
2022-12-13T12:26:51.419Z,-0.16
2022-12-13T12:29:08.142Z,-0.27
2022-12-13T12:31:29.434Z,-0.44
2022-12-13T12:34:00.801Z,-0.53
2022-12-13T12:36:16.126Z,-0.54
2022-12-13T12:38:27.128Z,-0.57
2022-12-13T12:41:07.510Z,-0.56
2022-12-13T12:43:25.947Z,-0.54
2022-12-13T12:46:02.073Z,-0.56
2022-12-13T12:50:51.690Z,-0.51
2022-12-13T12:53:10.581Z,-0.53
2022-12-13T12:55:15.051Z,-0.51
2022-12-13T12:57:39.528Z,-0.54
2022-12-13T13:00:09.553Z,-0.66
2022-12-13T13:02:31.480Z,-0.66
2022-12-13T13:04:39.236Z,-0.64
2022-12-13T13:06:47.936Z,-0.63
2022-12-13T13:09:05.125Z,-0.64
2022-12-13T13:11:23.837Z,-0.58
2022-12-13T13:13:45.975Z,-0.56
2022-12-13T13:15:56.262Z,-0.59
2022-12-13T13:17:59.715Z,-0.63
2022-12-13T13:20:24.528Z,-0.68
2022-12-13T13:22:32.271Z,-0.68
2022-12-13T13:24:34.769Z,-0.69
2022-12-13T13:26:39.235Z,-0.66
2022-12-13T13:28:40.727Z,-0.65
2022-12-13T13:31:04.058Z,-0.61
2022-12-13T13:33:38.915Z,-0.60
2022-12-13T13:35:43.422Z,-0.58
2022-12-13T13:37:47.899Z,-0.63
2022-12-13T13:40:02.109Z,-0.71
2022-12-13T13:42:20.882Z,-0.75
2022-12-13T13:44:54.755Z,-0.79
2022-12-13T13:47:17.177Z,-0.79
2022-12-13T13:49:18.669Z,-0.73
2022-12-13T13:51:49.415Z,-0.69
2022-12-13T13:54:29.931Z,-0.69
2022-12-13T13:56:45.004Z,-0.77
2022-12-13T13:59:06.304Z,-0.83
2022-12-13T14:01:45.460Z,-0.85
2022-12-13T14:04:14.912Z,-0.85
2022-12-13T14:06:43.948Z,-0.83
2022-12-13T14:08:59.170Z,-0.91
2022-12-13T14:11:12.507Z,-0.89
2022-12-13T14:13:32.480Z,-0.92
2022-12-13T14:16:12.184Z,-1.00
2022-12-13T14:18:40.209Z,-1.05
2022-12-13T14:21:26.183Z,-1.11
2022-12-13T14:23:53.692Z,-1.14
2022-12-13T14:26:01.082Z,-1.18
2022-12-13T14:28:27.558Z,-1.16
2022-12-13T14:30:29.768Z,-1.20
2022-12-13T14:32:37.099Z,-1.22
2022-12-13T14:34:39.410Z,-1.26
2022-12-13T14:36:44.001Z,-1.30
2022-12-13T14:38:48.045Z,-1.28
2022-12-13T14:40:52.832Z,-1.27
2022-12-13T14:42:57.509Z,-1.31
2022-12-13T14:45:31.223Z,-1.38
2022-12-13T14:47:33.998Z,-1.43
2022-12-13T14:49:39.453Z,-1.47
2022-12-13T14:51:41.659Z,-1.50
2022-12-13T14:53:43.580Z,-1.54
2022-12-13T14:56:27.616Z,-1.55
2022-12-13T14:58:29.642Z,-1.58
2022-12-13T15:00:35.374Z,-1.61
2022-12-13T15:02:36.895Z,-1.63
2022-12-13T15:04:38.410Z,-1.65
2022-12-13T15:06:39.975Z,-1.69
2022-12-13T15:08:49.619Z,-1.72
2022-12-13T15:10:54.596Z,-1.73
2022-12-13T15:12:56.271Z,-1.75
2022-12-13T15:15:05.377Z,-1.81
2022-12-13T15:17:06.950Z,-1.85
2022-12-13T15:19:31.307Z,-1.93
2022-12-13T15:21:33.696Z,-1.99
2022-12-13T15:23:48.728Z,-2.01
2022-12-13T15:26:03.527Z,-2.04
2022-12-13T15:28:05.994Z,-2.06
2022-12-13T15:30:14.158Z,-2.11
2022-12-13T15:32:19.145Z,-2.12
2022-12-13T15:34:34.465Z,-2.16
2022-12-13T15:36:38.466Z,-2.17
2022-12-13T15:38:55.481Z,-2.19
2022-12-13T15:40:57.145Z,-2.24
2022-12-13T15:42:58.800Z,-2.26
2022-12-13T15:45:03.129Z,-2.27
2022-12-13T15:47:11.264Z,-2.28
2022-12-13T15:49:35.686Z,-2.33
2022-12-13T15:52:16.787Z,-2.35
2022-12-13T15:54:21.806Z,-2.40
2022-12-13T15:56:39.220Z,-2.42
2022-12-13T15:58:40.675Z,-2.45
2022-12-13T16:00:48.930Z,-2.49
2022-12-13T16:03:16.983Z,-2.53
2022-12-13T16:05:29.296Z,-2.57
2022-12-13T16:07:39.825Z,-2.58
2022-12-13T16:09:41.293Z,-2.61
2022-12-13T16:11:49.964Z,-2.62
2022-12-13T16:13:51.454Z,-2.64
2022-12-13T16:16:26.947Z,-2.67
2022-12-13T16:18:41.250Z,-2.71
2022-12-13T16:20:44.023Z,-2.73
2022-12-13T16:22:45.936Z,-2.77
2022-12-13T16:24:48.756Z,-2.80
2022-12-13T16:26:50.491Z,-2.83
2022-12-13T16:28:53.367Z,-2.88
2022-12-13T16:31:02.028Z,-2.91
2022-12-13T16:33:18.768Z,-2.96
2022-12-13T16:35:25.146Z,-3.00
2022-12-13T16:37:27.518Z,-3.00
2022-12-13T16:39:29.109Z,-3.00
2022-12-13T16:41:31.378Z,-3.02
2022-12-13T16:43:37.607Z,-3.04
2022-12-13T16:45:45.698Z,-3.06
2022-12-13T16:47:49.447Z,-3.11
2022-12-13T16:49:51.113Z,-3.14
2022-12-13T16:51:53.191Z,-3.16
2022-12-13T16:53:54.649Z,-3.22
2022-12-13T16:55:58.359Z,-3.22
2022-12-13T16:58:03.864Z,-3.23
2022-12-13T17:00:09.897Z,-3.26
2022-12-13T17:02:17.665Z,-3.28
2022-12-13T17:04:22.420Z,-3.30
2022-12-13T17:06:24.920Z,-3.34
2022-12-13T17:08:26.394Z,-3.36
2022-12-13T17:10:28.282Z,-3.38
2022-12-13T17:12:29.807Z,-3.41
2022-12-13T17:14:31.240Z,-3.44
2022-12-13T17:16:33.122Z,-3.46
2022-12-13T17:18:34.600Z,-3.51
2022-12-13T17:20:36.405Z,-3.53
2022-12-13T17:22:38.429Z,-3.57
2022-12-13T17:24:40.055Z,-3.59
2022-12-13T17:26:54.190Z,-3.61
2022-12-13T17:28:56.650Z,-3.63
2022-12-13T17:31:06.296Z,-3.66
2022-12-13T17:33:09.784Z,-3.66
2022-12-13T17:35:16.399Z,-3.64
2022-12-13T17:37:19.834Z,-3.64
2022-12-13T17:39:21.397Z,-3.66
2022-12-13T17:41:22.847Z,-3.68
2022-12-13T17:43:33.048Z,-3.71
2022-12-13T17:45:36.454Z,-3.74
2022-12-13T17:47:39.231Z,-3.76
2022-12-13T17:49:40.823Z,-3.74
2022-12-13T17:51:42.357Z,-3.74
2022-12-13T17:53:52.779Z,-3.74
2022-12-13T17:55:56.621Z,-3.74
2022-12-13T17:58:04.136Z,-3.75
2022-12-13T18:00:06.897Z,-3.78
2022-12-13T18:02:11.114Z,-3.80
2022-12-13T18:04:13.018Z,-3.82
2022-12-13T18:06:15.433Z,-3.85
2022-12-13T18:08:18.398Z,-3.87
2022-12-13T18:10:22.576Z,-3.89
2022-12-13T18:13:06.763Z,-3.90
2022-12-13T18:15:10.541Z,-3.93
2022-12-13T18:17:12.040Z,-3.94
2022-12-13T18:19:14.866Z,-3.97
2022-12-13T18:21:17.904Z,-3.99
2022-12-13T18:23:19.928Z,-4.02
2022-12-13T18:25:21.389Z,-4.04
2022-12-13T18:27:22.914Z,-4.09
2022-12-13T18:29:24.400Z,-4.12
2022-12-13T18:31:26.147Z,-4.13
2022-12-13T18:33:28.072Z,-4.16
2022-12-13T18:35:30.045Z,-4.17
2022-12-13T18:37:31.710Z,-4.19
2022-12-13T18:39:34.839Z,-4.20
2022-12-13T18:41:36.361Z,-4.22
2022-12-13T18:43:38.227Z,-4.27
2022-12-13T18:45:39.685Z,-4.30
2022-12-13T18:47:41.359Z,-4.30
2022-12-13T18:49:43.279Z,-4.31
2022-12-13T18:51:56.283Z,-4.33
2022-12-13T18:53:58.308Z,-4.35
2022-12-13T18:56:05.208Z,-4.35
2022-12-13T18:58:06.636Z,-4.37
2022-12-13T19:00:09.071Z,-4.40
2022-12-13T19:02:14.375Z,-4.42
2022-12-13T19:04:15.830Z,-4.43
2022-12-13T19:06:19.879Z,-4.45
2022-12-13T19:08:26.011Z,-4.47
2022-12-13T19:10:27.795Z,-4.48
2022-12-13T19:12:29.451Z,-4.51
2022-12-13T19:14:30.890Z,-4.54
2022-12-13T19:16:32.662Z,-4.58
2022-12-13T19:18:35.333Z,-4.61
2022-12-13T19:20:37.117Z,-4.65
2022-12-13T19:22:39.350Z,-4.66
2022-12-13T19:24:40.862Z,-4.66
2022-12-13T19:26:42.393Z,-4.67
2022-12-13T19:28:44.238Z,-4.67
2022-12-13T19:30:47.653Z,-4.69
2022-12-13T19:32:49.806Z,-4.69
2022-12-13T19:34:51.255Z,-4.71
2022-12-13T19:36:52.761Z,-4.74
2022-12-13T19:38:55.916Z,-4.77
2022-12-13T19:40:57.465Z,-4.78
2022-12-13T19:42:58.934Z,-4.80
2022-12-13T19:45:00.365Z,-4.83
2022-12-13T19:47:01.870Z,-4.86
2022-12-13T19:49:04.253Z,-4.89
2022-12-13T19:51:08.170Z,-4.90
2022-12-13T19:53:10.307Z,-4.91
2022-12-13T19:55:11.840Z,-4.93
2022-12-13T19:57:13.626Z,-4.96
2022-12-13T19:59:15.087Z,-4.97
2022-12-13T20:01:17.864Z,-4.98
2022-12-13T20:03:19.366Z,-5.00
2022-12-13T20:05:21.000Z,-5.04
2022-12-13T20:07:23.816Z,-5.09
2022-12-13T20:09:25.369Z,-5.12
2022-12-13T20:11:26.951Z,-5.17
2022-12-13T20:13:29.221Z,-5.20
2022-12-13T20:15:31.087Z,-5.20
2022-12-13T20:17:32.621Z,-5.22
2022-12-13T20:19:34.045Z,-5.24
2022-12-13T20:21:35.611Z,-5.26
2022-12-13T20:23:38.310Z,-5.26
2022-12-13T20:25:40.081Z,-5.27
2022-12-13T20:27:41.852Z,-5.28
2022-12-13T20:29:43.323Z,-5.29
2022-12-13T20:31:52.098Z,-5.30
2022-12-13T20:33:59.419Z,-5.33
2022-12-13T20:36:25.164Z,-5.36
2022-12-13T20:38:27.550Z,-5.39
2022-12-13T20:40:29.024Z,-5.41
2022-12-13T20:42:30.546Z,-5.43
2022-12-13T20:44:32.171Z,-5.45
2022-12-13T20:46:34.103Z,-5.46
2022-12-13T20:48:38.853Z,-5.49
2022-12-13T20:50:40.302Z,-5.53
2022-12-13T20:52:44.131Z,-5.57
2022-12-13T20:54:49.178Z,-5.60
2022-12-13T20:56:51.123Z,-5.62
2022-12-13T20:58:52.924Z,-5.63
2022-12-13T21:00:54.850Z,-5.65
2022-12-13T21:02:56.322Z,-5.65
2022-12-13T21:04:57.784Z,-5.65
2022-12-13T21:06:59.595Z,-5.68
2022-12-13T21:09:03.010Z,-5.70
2022-12-13T21:11:23.758Z,-5.71
2022-12-13T21:13:25.613Z,-5.74
2022-12-13T21:15:27.383Z,-5.75
2022-12-13T21:17:28.819Z,-5.76
2022-12-13T21:19:39.039Z,-5.79
2022-12-13T21:21:41.429Z,-5.83
2022-12-13T21:23:42.997Z,-5.84
2022-12-13T21:25:44.445Z,-5.85
2022-12-13T21:27:49.593Z,-5.85
2022-12-13T21:29:51.015Z,-5.87
2022-12-13T21:31:53.301Z,-5.88
2022-12-13T21:33:57.607Z,-5.88
2022-12-13T21:36:18.266Z,-5.90
2022-12-13T21:38:19.783Z,-5.91
2022-12-13T21:40:22.551Z,-5.91
2022-12-13T21:42:24.004Z,-5.90
2022-12-13T21:44:25.569Z,-5.89
2022-12-13T21:46:54.758Z,-5.91
2022-12-13T21:48:51.879Z,-5.94
2022-12-13T21:50:53.326Z,-5.94
2022-12-13T21:52:54.764Z,-5.93
2022-12-13T21:55:15.170Z,-5.94
2022-12-13T21:57:36.290Z,-5.96
2022-12-13T21:59:37.730Z,-5.96
2022-12-13T22:02:13.071Z,-5.98
2022-12-13T22:04:15.922Z,-5.99
2022-12-13T22:06:17.474Z,-6.00
2022-12-13T22:08:19.056Z,-6.03
2022-12-13T22:10:20.521Z,-6.03
2022-12-13T22:12:30.893Z,-6.05
2022-12-13T22:14:32.378Z,-6.07
2022-12-13T22:16:34.025Z,-6.10
2022-12-13T22:18:35.515Z,-6.09
2022-12-13T22:20:37.020Z,-6.10
2022-12-13T22:22:40.165Z,-6.10
2022-12-13T22:24:41.602Z,-6.11
2022-12-13T22:26:43.106Z,-6.14
2022-12-13T22:28:44.962Z,-6.18
2022-12-13T22:30:53.702Z,-6.20
2022-12-13T22:32:55.051Z,-6.22
2022-12-13T22:34:57.117Z,-6.23
2022-12-13T22:36:59.256Z,-6.27
2022-12-13T22:39:00.971Z,-6.27
2022-12-13T22:41:04.203Z,-6.28
2022-12-13T22:43:05.652Z,-6.30
2022-12-13T22:45:07.387Z,-6.32
2022-12-13T22:47:08.895Z,-6.35
2022-12-13T22:49:11.473Z,-6.35
2022-12-13T22:51:15.461Z,-6.35
2022-12-13T22:53:16.902Z,-6.37
2022-12-13T22:55:18.320Z,-6.37
2022-12-13T22:57:19.778Z,-6.39
2022-12-13T22:59:21.255Z,-6.40
2022-12-13T23:01:27.997Z,-6.41
2022-12-13T23:03:29.466Z,-6.44
2022-12-13T23:05:30.904Z,-6.46
2022-12-13T23:07:32.405Z,-6.45
2022-12-13T23:09:33.956Z,-6.46
2022-12-13T23:11:54.069Z,-6.45
2022-12-13T23:13:58.643Z,-6.46
2022-12-13T23:16:00.078Z,-6.47
2022-12-13T23:18:01.505Z,-6.47
2022-12-13T23:20:04.408Z,-6.48
2022-12-13T23:22:08.417Z,-6.50
2022-12-13T23:24:10.781Z,-6.51
2022-12-13T23:26:19.554Z,-6.50
2022-12-13T23:28:20.982Z,-6.49
2022-12-13T23:30:22.502Z,-6.47
2022-12-13T23:32:24.001Z,-6.46
2022-12-13T23:34:25.454Z,-6.46
2022-12-13T23:36:29.278Z,-6.47
2022-12-13T23:38:31.501Z,-6.47
2022-12-13T23:40:33.041Z,-6.48
2022-12-13T23:42:34.485Z,-6.49
2022-12-13T23:44:36.181Z,-6.50
2022-12-13T23:46:37.874Z,-6.50
2022-12-13T23:48:39.648Z,-6.52
2022-12-13T23:50:41.588Z,-6.52
2022-12-13T23:52:43.151Z,-6.53
2022-12-13T23:54:44.634Z,-6.54
2022-12-13T23:56:47.198Z,-6.54
2022-12-13T23:58:49.090Z,-6.54
